Chesterfield, Indiana
Current Conditions -  °F | °C
As of 8:53 PM on Saturday 22 Nov 2014 (Local Time) from KMIE Reporting Station
Overcast Overcast  
Wind Chill: 53°   Ceiling: 4000
Heat Index: 53°   Visibility: 10mi
Dew Point: 40°   Wind: 14mph
Humidity: 61%   Direction: 200°SSW
Pressure: 30.01"   Gusts: NA
Location:  40.0742°N, 85.6063°W
Report Text: KMIE 230153Z 20012KT 10SM OVC040 12/04 A3001 RMK AO2 SLP160 T01170044
Loading
Personal Weather Stations






























Interactive Weather Map New forecast layout! Learn more

10-Day Weather Forecast

Advertisements
Track Severe Weather on mobile